Terminal Aerodrome Forecast
Issued by NWS Twin Cities, MN

Home | Current Version | Previous Version | Graphics & Text | Print | Product List | Glossary On
Versions: 1 2 3 4 5 6 7 8 9 10 11 12 13 14 15 16 17
000
FTUS43 KMPX 272104 AAA
TAFSTC
TAF AMD
KSTC 272104Z 2721/2818 10006KT 3SM -SHRA BR BKN015 OVC020
      TEMPO 2721/2724 1SM -SHRA BKN009 OVC015
     FM280100 VRB06KT P6SM VCSH OVC020
     FM280500 VRB03KT 3SM BR SCT007 OVC015
     FM281100 02004KT 5SM BR OVC008
     FM281400 36003KT P6SM OVC020=

USA.gov is the U.S. government's official web portal to all federal, state and local government web resources and services.